createdAt,value
2019-01-31T00:00:36.800Z,993.84
2019-01-31T00:01:17.371Z,993.85
2019-01-31T00:01:57.942Z,993.87
2019-01-31T00:02:38.494Z,993.85
2019-01-31T00:03:19.072Z,993.83
2019-01-31T00:03:59.637Z,993.85
2019-01-31T00:04:40.244Z,993.83
2019-01-31T00:05:20.803Z,993.85
2019-01-31T00:06:01.413Z,993.85
2019-01-31T00:06:41.966Z,993.83
2019-01-31T00:07:22.523Z,993.83
2019-01-31T00:08:03.096Z,993.83
2019-01-31T00:08:45.713Z,993.86
2019-01-31T00:09:24.289Z,993.83
2019-01-31T00:10:04.830Z,993.84
2019-01-31T00:10:45.389Z,993.85
2019-01-31T00:11:25.972Z,993.85
2019-01-31T00:12:06.540Z,993.84
2019-01-31T00:12:47.102Z,993.83
2019-01-31T00:13:27.673Z,993.85
2019-01-31T00:14:08.230Z,993.89
2019-01-31T00:14:48.805Z,993.93
2019-01-31T00:15:29.373Z,993.86
2019-01-31T00:16:09.980Z,993.89
2019-01-31T00:16:50.473Z,993.9
2019-01-31T00:17:31.029Z,993.84
2019-01-31T00:18:11.586Z,993.85
2019-01-31T00:18:52.148Z,993.86
2019-01-31T00:19:32.713Z,993.86
2019-01-31T00:20:13.260Z,993.87
2019-01-31T00:20:53.825Z,993.88
2019-01-31T00:21:34.378Z,993.83
2019-01-31T00:22:14.959Z,993.86
2019-01-31T00:22:55.483Z,993.86
2019-01-31T00:23:36.048Z,993.88
2019-01-31T00:24:16.596Z,993.85
2019-01-31T00:24:57.147Z,993.84
2019-01-31T00:25:37.741Z,993.83
2019-01-31T00:26:18.306Z,993.85
2019-01-31T00:26:58.864Z,993.89
2019-01-31T00:27:39.417Z,993.85
2019-01-31T00:28:19.981Z,993.86
2019-01-31T00:29:00.536Z,993.85
2019-01-31T00:29:41.108Z,993.86
2019-01-31T00:30:21.661Z,993.85
2019-01-31T00:31:02.200Z,993.85
2019-01-31T00:31:42.752Z,993.81
2019-01-31T00:32:23.302Z,993.78
2019-01-31T00:33:03.873Z,993.82
2019-01-31T00:33:44.430Z,993.82
2019-01-31T00:34:25.109Z,993.85
2019-01-31T00:35:05.569Z,993.81
2019-01-31T00:35:46.118Z,993.8
2019-01-31T00:36:26.686Z,993.86
2019-01-31T00:37:07.265Z,993.84
2019-01-31T00:37:47.819Z,993.85
2019-01-31T00:38:28.364Z,993.84
2019-01-31T00:39:08.928Z,993.88
2019-01-31T00:39:49.512Z,993.81
2019-01-31T00:40:30.074Z,993.8
2019-01-31T00:41:10.632Z,993.81
2019-01-31T00:41:51.192Z,993.83
2019-01-31T00:42:31.754Z,993.8
2019-01-31T00:43:12.322Z,993.85
2019-01-31T00:43:52.893Z,993.81
2019-01-31T00:44:33.419Z,993.83
2019-01-31T00:45:13.982Z,993.85
2019-01-31T00:45:54.543Z,993.81
2019-01-31T00:46:35.098Z,993.82
2019-01-31T00:47:15.655Z,993.82
2019-01-31T00:47:56.221Z,993.83
2019-01-31T00:48:36.786Z,993.82
2019-01-31T00:49:17.346Z,993.82
2019-01-31T00:49:57.895Z,993.85
2019-01-31T00:50:38.470Z,993.78
2019-01-31T00:51:19.037Z,993.83
2019-01-31T00:51:59.605Z,993.87
2019-01-31T00:52:40.156Z,993.88
2019-01-31T00:53:20.767Z,993.89
2019-01-31T00:54:01.335Z,993.88
2019-01-31T00:54:41.945Z,993.88
2019-01-31T00:55:22.507Z,993.89
2019-01-31T00:56:03.112Z,993.9
2019-01-31T00:56:43.663Z,993.89
2019-01-31T00:57:24.234Z,993.85
2019-01-31T00:58:04.802Z,993.87
2019-01-31T00:58:45.356Z,993.91
2019-01-31T00:59:25.936Z,993.91
2019-01-31T01:00:06.491Z,993.89
2019-01-31T01:00:47.068Z,993.91
2019-01-31T01:01:27.621Z,993.88
2019-01-31T01:02:08.284Z,993.94
2019-01-31T01:02:48.729Z,993.88
2019-01-31T01:03:29.325Z,993.89
2019-01-31T01:04:09.878Z,993.88
2019-01-31T01:04:50.482Z,993.94
2019-01-31T01:05:31.040Z,993.97
2019-01-31T01:06:11.596Z,993.98
2019-01-31T01:06:52.167Z,994
2019-01-31T01:07:32.721Z,993.99
2019-01-31T01:08:13.287Z,994.02
2019-01-31T01:08:53.852Z,994
2019-01-31T01:09:34.408Z,994
2019-01-31T01:10:14.965Z,993.99
2019-01-31T01:10:55.527Z,993.98
2019-01-31T01:11:36.090Z,993.94
2019-01-31T01:12:16.643Z,994.02
2019-01-31T01:12:57.198Z,993.96
2019-01-31T01:13:37.759Z,993.97
2019-01-31T01:14:18.305Z,993.95
2019-01-31T01:14:58.882Z,993.99
2019-01-31T01:15:39.440Z,993.99
2019-01-31T01:16:20.018Z,993.99
2019-01-31T01:17:00.571Z,994
2019-01-31T01:17:41.137Z,994
2019-01-31T01:18:21.695Z,993.95
2019-01-31T01:19:02.263Z,993.97
2019-01-31T01:19:42.870Z,993.96
2019-01-31T01:20:23.418Z,994.01
2019-01-31T01:21:03.970Z,993.99
2019-01-31T01:21:44.527Z,994.02
2019-01-31T01:22:25.083Z,993.97
2019-01-31T01:23:05.635Z,993.99
2019-01-31T01:23:46.196Z,994.06
2019-01-31T01:24:26.754Z,994.02
2019-01-31T01:25:07.326Z,994.08
2019-01-31T01:25:47.887Z,994.05
2019-01-31T01:26:28.439Z,994.07
2019-01-31T01:27:08.999Z,994.02
2019-01-31T01:27:49.567Z,994.01
2019-01-31T01:28:30.135Z,994.03
2019-01-31T01:29:10.692Z,994.08
2019-01-31T01:29:51.239Z,994.08
2019-01-31T01:30:31.794Z,994.05
2019-01-31T01:31:12.339Z,994.07
2019-01-31T01:31:52.899Z,994.05
2019-01-31T01:32:33.440Z,994.05
2019-01-31T01:33:14.012Z,994.08
2019-01-31T01:33:54.563Z,994.11
2019-01-31T01:34:35.121Z,994.09
2019-01-31T01:35:15.660Z,994.14
2019-01-31T01:35:56.225Z,994.15
2019-01-31T01:36:36.780Z,994.1
2019-01-31T01:37:17.339Z,994.1
2019-01-31T01:37:57.937Z,994.13
2019-01-31T01:38:38.494Z,994.09
2019-01-31T01:39:19.573Z,994.08
2019-01-31T01:39:59.622Z,994.05
2019-01-31T01:40:40.189Z,994.04
2019-01-31T01:41:20.736Z,994.07
2019-01-31T01:42:01.285Z,994.07
2019-01-31T01:42:41.845Z,994.06
2019-01-31T01:43:22.413Z,994.08
2019-01-31T01:44:02.961Z,994.09
2019-01-31T01:44:43.526Z,994.09
2019-01-31T01:45:24.086Z,994.07
2019-01-31T01:46:04.671Z,994.08
2019-01-31T01:46:45.227Z,994.08
2019-01-31T01:47:25.798Z,994.12
2019-01-31T01:48:06.365Z,994.04
2019-01-31T01:48:46.928Z,994.07
2019-01-31T01:49:27.803Z,994.03
2019-01-31T01:50:08.366Z,994.07
2019-01-31T01:50:48.930Z,994.04
2019-01-31T01:51:29.481Z,994.06
2019-01-31T01:52:10.029Z,994.05
2019-01-31T01:52:50.583Z,994.03
2019-01-31T01:53:31.130Z,994.01
2019-01-31T01:54:11.684Z,994.01
2019-01-31T01:54:52.231Z,994.01
2019-01-31T01:55:32.780Z,994.08
2019-01-31T01:56:13.344Z,994.01
2019-01-31T01:56:53.904Z,994.01
2019-01-31T01:57:34.473Z,994.04
2019-01-31T01:58:15.031Z,994.02
2019-01-31T01:58:55.605Z,994.02
2019-01-31T01:59:36.153Z,994.03
2019-01-31T02:00:16.710Z,994.11
2019-01-31T02:00:57.281Z,994.05
2019-01-31T02:01:37.857Z,994.04
2019-01-31T02:02:18.411Z,994.07
2019-01-31T02:02:58.979Z,994.09
2019-01-31T02:03:39.534Z,994.08
2019-01-31T02:04:20.087Z,994.05
2019-01-31T02:05:00.634Z,994.07
2019-01-31T02:05:41.200Z,994.09
2019-01-31T02:06:21.757Z,994.05
2019-01-31T02:07:02.320Z,994.07
2019-01-31T02:07:42.919Z,994.02
2019-01-31T02:08:23.439Z,994.09
2019-01-31T02:09:04.025Z,994.07
2019-01-31T02:09:44.589Z,994.05
2019-01-31T02:10:25.139Z,994.03
2019-01-31T02:11:05.687Z,994.05
2019-01-31T02:11:46.242Z,994.08
2019-01-31T02:12:26.803Z,994.05
2019-01-31T02:13:07.373Z,994.06
2019-01-31T02:13:47.928Z,994.08
2019-01-31T02:14:28.497Z,994.11
2019-01-31T02:15:09.056Z,994.05
2019-01-31T02:15:49.616Z,994.05
2019-01-31T02:16:30.163Z,994.04
2019-01-31T02:17:10.712Z,994
2019-01-31T02:17:51.280Z,994.04
2019-01-31T02:18:31.818Z,994.04
2019-01-31T02:19:12.374Z,994.03
2019-01-31T02:19:52.935Z,994.03
2019-01-31T02:20:33.485Z,994.04
2019-01-31T02:21:14.045Z,993.99
2019-01-31T02:21:54.636Z,993.95
2019-01-31T02:22:35.183Z,994
2019-01-31T02:23:15.748Z,993.96
2019-01-31T02:23:56.322Z,993.97
2019-01-31T02:24:36.873Z,993.98
2019-01-31T02:25:17.422Z,993.96
2019-01-31T02:25:57.989Z,993.97
2019-01-31T02:26:38.533Z,993.99
2019-01-31T02:27:19.168Z,994.02
2019-01-31T02:27:59.651Z,993.95
2019-01-31T02:28:40.214Z,993.98
2019-01-31T02:29:20.767Z,993.98
2019-01-31T02:30:01.321Z,993.96
2019-01-31T02:30:41.873Z,993.97
2019-01-31T02:31:22.438Z,993.97
2019-01-31T02:32:02.998Z,993.95
2019-01-31T02:32:43.565Z,993.96
2019-01-31T02:33:24.127Z,994.01
2019-01-31T02:34:04.697Z,993.93
2019-01-31T02:34:45.247Z,993.94
2019-01-31T02:35:25.795Z,993.96
2019-01-31T02:36:06.388Z,993.99
2019-01-31T02:36:46.933Z,993.98
2019-01-31T02:37:27.492Z,993.98
2019-01-31T02:38:08.052Z,993.97
2019-01-31T02:38:48.593Z,994.04
2019-01-31T02:39:29.168Z,994.03
2019-01-31T02:40:09.724Z,994
2019-01-31T02:40:50.285Z,994
2019-01-31T02:41:30.852Z,994.02
2019-01-31T02:42:11.400Z,994
2019-01-31T02:42:51.977Z,994.04
2019-01-31T02:43:32.548Z,994
2019-01-31T02:44:13.125Z,994.02
2019-01-31T02:44:53.682Z,994.01
2019-01-31T02:45:34.244Z,994
2019-01-31T02:46:14.818Z,994.03
2019-01-31T02:46:55.366Z,994.02
2019-01-31T02:47:35.917Z,993.98
2019-01-31T02:48:16.625Z,994.01
2019-01-31T02:48:57.024Z,994.01
2019-01-31T02:49:37.577Z,994
2019-01-31T02:50:18.127Z,994.02
2019-01-31T02:50:58.681Z,994.01
2019-01-31T02:51:39.251Z,994.01
2019-01-31T02:52:19.806Z,994.05
2019-01-31T02:53:00.368Z,994.02
2019-01-31T02:53:40.915Z,994.02
2019-01-31T02:54:21.508Z,994
2019-01-31T02:55:02.062Z,994.02
2019-01-31T02:55:42.608Z,994.03
2019-01-31T02:56:25.859Z,994.03
2019-01-31T02:57:03.743Z,994
2019-01-31T02:57:44.296Z,994
2019-01-31T02:58:24.866Z,994.04
2019-01-31T02:59:05.438Z,994.04
2019-01-31T02:59:46.064Z,994.02
2019-01-31T03:00:26.548Z,993.99
2019-01-31T03:01:07.132Z,994
2019-01-31T03:01:47.693Z,993.98
2019-01-31T03:02:28.257Z,993.95
2019-01-31T03:03:08.804Z,993.97
2019-01-31T03:03:49.371Z,993.99
2019-01-31T03:04:29.924Z,993.97
2019-01-31T03:05:10.482Z,994
2019-01-31T03:05:51.036Z,994
2019-01-31T03:06:31.606Z,993.97
2019-01-31T03:07:12.162Z,994.01
2019-01-31T03:07:52.733Z,993.98
2019-01-31T03:08:33.272Z,994.03
2019-01-31T03:09:13.854Z,993.96
2019-01-31T03:09:55.163Z,993.99
2019-01-31T03:10:34.987Z,994.03
2019-01-31T03:11:15.545Z,994.02
2019-01-31T03:11:56.096Z,994.02
2019-01-31T03:12:36.657Z,994.02
2019-01-31T03:13:17.207Z,994.05
2019-01-31T03:14:09.418Z,994.02
2019-01-31T03:14:38.358Z,994.05
2019-01-31T03:15:18.921Z,994.04
2019-01-31T03:15:59.480Z,994.03
2019-01-31T03:16:40.044Z,994.02
2019-01-31T03:17:20.597Z,993.96
2019-01-31T03:18:01.157Z,993.96
2019-01-31T03:18:41.704Z,993.97
2019-01-31T03:19:22.402Z,994.01
2019-01-31T03:20:02.856Z,994.03
2019-01-31T03:20:43.468Z,994.04
2019-01-31T03:21:24.012Z,994.01
2019-01-31T03:22:04.578Z,993.99
2019-01-31T03:22:45.159Z,994.04
2019-01-31T03:23:25.720Z,994.07
2019-01-31T03:24:06.271Z,994.03
2019-01-31T03:24:46.859Z,994.06
2019-01-31T03:25:27.428Z,994.05
2019-01-31T03:26:07.969Z,994.03
2019-01-31T03:26:48.522Z,994.02
2019-01-31T03:27:29.072Z,994.01
2019-01-31T03:28:09.629Z,994.05
2019-01-31T03:28:50.194Z,994.04
2019-01-31T03:29:30.755Z,994.04
2019-01-31T03:30:11.289Z,994.09
2019-01-31T03:30:51.855Z,994.05
2019-01-31T03:31:32.410Z,994.07
2019-01-31T03:32:12.968Z,994.1
2019-01-31T03:32:53.525Z,994.12
2019-01-31T03:33:34.089Z,994.14
2019-01-31T03:34:14.666Z,994.13
2019-01-31T03:34:55.203Z,994.11
2019-01-31T03:35:35.766Z,994.11
2019-01-31T03:36:16.324Z,994.11
2019-01-31T03:36:56.873Z,994.13
2019-01-31T03:37:37.476Z,994.14
2019-01-31T03:38:18.033Z,994.13
2019-01-31T03:38:58.595Z,994.1
2019-01-31T03:39:39.151Z,994.09
2019-01-31T03:40:19.712Z,994.12
2019-01-31T03:41:00.277Z,994.11
2019-01-31T03:41:40.833Z,994.1
2019-01-31T03:42:21.390Z,994.12
2019-01-31T03:43:01.947Z,994.13
2019-01-31T03:43:42.503Z,994.11
2019-01-31T03:44:23.084Z,994.12
2019-01-31T03:45:03.638Z,994.1
2019-01-31T03:45:44.182Z,994.09
2019-01-31T03:46:24.738Z,994.13
2019-01-31T03:47:05.295Z,994.1
2019-01-31T03:47:45.849Z,994.11
2019-01-31T03:48:26.409Z,994.12
2019-01-31T03:49:06.968Z,994.08
2019-01-31T03:49:47.851Z,994.12
2019-01-31T03:50:28.423Z,994.11
2019-01-31T03:51:09.031Z,994.09
2019-01-31T03:51:49.553Z,994.07
2019-01-31T03:52:30.121Z,994.09
2019-01-31T03:53:10.688Z,994.11
2019-01-31T03:53:51.244Z,994.11
2019-01-31T03:54:31.801Z,994.11
2019-01-31T03:55:12.494Z,994.11
2019-01-31T03:55:52.915Z,994.11
2019-01-31T03:56:33.475Z,994.14
2019-01-31T03:57:14.046Z,994.14
2019-01-31T03:57:54.595Z,994.12
2019-01-31T03:58:35.149Z,994.11
2019-01-31T03:59:15.694Z,994.08
2019-01-31T03:59:56.259Z,994.14
2019-01-31T04:00:36.834Z,994.1
2019-01-31T04:01:17.410Z,994.17
2019-01-31T04:01:57.975Z,994.09
2019-01-31T04:02:38.527Z,994.12
2019-01-31T04:03:19.086Z,994.1
2019-01-31T04:03:59.643Z,994.14
2019-01-31T04:04:40.188Z,994.1
2019-01-31T04:05:20.748Z,994.15
2019-01-31T04:06:01.300Z,994.12
2019-01-31T04:06:41.849Z,994.11
2019-01-31T04:07:22.426Z,994.15
2019-01-31T04:08:02.982Z,994.12
2019-01-31T04:08:43.542Z,994.17
2019-01-31T04:09:24.096Z,994.14
2019-01-31T04:10:04.654Z,994.15
2019-01-31T04:10:45.219Z,994.16
2019-01-31T04:11:25.788Z,994.12
2019-01-31T04:12:06.336Z,994.13
2019-01-31T04:12:46.912Z,994.15
2019-01-31T04:13:27.466Z,994.18
2019-01-31T04:14:08.042Z,994.18
2019-01-31T04:14:48.594Z,994.19
2019-01-31T04:15:29.157Z,994.21
2019-01-31T04:16:09.721Z,994.21
2019-01-31T04:16:50.275Z,994.2
2019-01-31T04:17:30.831Z,994.21
2019-01-31T04:18:11.383Z,994.23
2019-01-31T04:18:51.945Z,994.22
2019-01-31T04:19:32.495Z,994.18
2019-01-31T04:20:13.068Z,994.19
2019-01-31T04:20:53.651Z,994.22
2019-01-31T04:21:34.233Z,994.19
2019-01-31T04:22:14.783Z,994.17
2019-01-31T04:22:55.336Z,994.16
2019-01-31T04:23:35.897Z,994.15
2019-01-31T04:24:16.455Z,994.14
2019-01-31T04:24:57.013Z,994.18
2019-01-31T04:25:37.569Z,994.16
2019-01-31T04:26:18.132Z,994.19
2019-01-31T04:26:58.684Z,994.24
2019-01-31T04:27:39.240Z,994.22
2019-01-31T04:28:19.801Z,994.22
2019-01-31T04:29:00.358Z,994.16
2019-01-31T04:29:40.912Z,994.23
2019-01-31T04:30:21.469Z,994.22
2019-01-31T04:31:02.036Z,994.19
2019-01-31T04:31:42.633Z,994.23
2019-01-31T04:32:23.228Z,994.23
2019-01-31T04:33:03.795Z,994.2
2019-01-31T04:33:44.349Z,994.2
2019-01-31T04:34:24.907Z,994.2
2019-01-31T04:35:05.454Z,994.18
2019-01-31T04:35:46.014Z,994.22
2019-01-31T04:36:26.585Z,994.2
2019-01-31T04:37:07.140Z,994.22
2019-01-31T04:37:47.714Z,994.18
2019-01-31T04:38:28.261Z,994.22
2019-01-31T04:39:08.816Z,994.21
2019-01-31T04:39:49.375Z,994.2
2019-01-31T04:40:31.638Z,994.23
2019-01-31T04:41:10.498Z,994.23
2019-01-31T04:41:51.055Z,994.19
2019-01-31T04:42:31.610Z,994.21
2019-01-31T04:43:12.166Z,994.23
2019-01-31T04:43:52.787Z,994.19
2019-01-31T04:44:33.301Z,994.24
2019-01-31T04:45:13.875Z,994.23
2019-01-31T04:45:54.421Z,994.23
2019-01-31T04:46:34.987Z,994.24
2019-01-31T04:47:15.543Z,994.23
2019-01-31T04:47:56.568Z,994.28
2019-01-31T04:48:36.670Z,994.26
2019-01-31T04:49:17.229Z,994.24
2019-01-31T04:49:58.712Z,994.26
2019-01-31T04:50:39.251Z,994.24
2019-01-31T04:51:19.819Z,994.18
2019-01-31T04:52:00.372Z,994.22
2019-01-31T04:52:40.946Z,994.24
2019-01-31T04:53:21.511Z,994.21
2019-01-31T04:54:02.094Z,994.22
2019-01-31T04:54:42.652Z,994.29
2019-01-31T04:55:23.203Z,994.27
2019-01-31T04:56:03.753Z,994.27
2019-01-31T04:56:44.362Z,994.29
2019-01-31T04:57:24.908Z,994.33
2019-01-31T04:58:05.465Z,994.29
2019-01-31T04:58:46.017Z,994.36
2019-01-31T04:59:26.582Z,994.32
2019-01-31T05:00:07.146Z,994.34
2019-01-31T05:00:47.701Z,994.32
2019-01-31T05:01:28.266Z,994.35
2019-01-31T05:02:08.860Z,994.31
2019-01-31T05:02:49.415Z,994.31
2019-01-31T05:03:29.972Z,994.31
2019-01-31T05:04:10.525Z,994.33
2019-01-31T05:04:51.077Z,994.32
2019-01-31T05:05:31.624Z,994.36
2019-01-31T05:06:12.177Z,994.36
2019-01-31T05:06:52.732Z,994.38
2019-01-31T05:07:33.281Z,994.35
2019-01-31T05:08:13.857Z,994.38
2019-01-31T05:08:54.415Z,994.4
2019-01-31T05:09:34.968Z,994.37
2019-01-31T05:10:15.534Z,994.45
2019-01-31T05:10:56.099Z,994.39
2019-01-31T05:11:36.724Z,994.45
2019-01-31T05:12:17.282Z,994.44
2019-01-31T05:12:57.842Z,994.4
2019-01-31T05:13:38.397Z,994.39
2019-01-31T05:14:18.969Z,994.37
2019-01-31T05:14:59.523Z,994.41
2019-01-31T05:15:40.100Z,994.33
2019-01-31T05:16:20.665Z,994.35
2019-01-31T05:17:01.223Z,994.37
2019-01-31T05:17:41.778Z,994.41
2019-01-31T05:18:22.323Z,994.4
2019-01-31T05:19:02.954Z,994.46
2019-01-31T05:19:43.435Z,994.44
2019-01-31T05:20:23.979Z,994.42
2019-01-31T05:21:04.539Z,994.4
2019-01-31T05:21:45.100Z,994.46
2019-01-31T05:22:25.652Z,994.43
2019-01-31T05:23:06.222Z,994.46
2019-01-31T05:23:46.781Z,994.43
2019-01-31T05:24:27.331Z,994.47
2019-01-31T05:25:07.887Z,994.46
2019-01-31T05:25:48.435Z,994.45
2019-01-31T05:26:28.989Z,994.47
2019-01-31T05:27:09.548Z,994.45
2019-01-31T05:27:50.104Z,994.44
2019-01-31T05:28:30.672Z,994.51
2019-01-31T05:29:11.233Z,994.51
2019-01-31T05:29:51.793Z,994.49
2019-01-31T05:30:32.376Z,994.51
2019-01-31T05:31:12.939Z,994.51
2019-01-31T05:31:53.503Z,994.52
2019-01-31T05:32:34.080Z,994.49
2019-01-31T05:33:14.616Z,994.52
2019-01-31T05:33:55.172Z,994.53
2019-01-31T05:34:35.740Z,994.52
2019-01-31T05:35:16.316Z,994.54
2019-01-31T05:35:56.865Z,994.57
2019-01-31T05:36:37.418Z,994.52
2019-01-31T05:37:17.983Z,994.56
2019-01-31T05:37:58.602Z,994.56
2019-01-31T05:38:39.150Z,994.52
2019-01-31T05:39:19.708Z,994.47
2019-01-31T05:40:00.265Z,994.5
2019-01-31T05:40:40.818Z,994.54
2019-01-31T05:41:21.372Z,994.55
2019-01-31T05:42:02.052Z,994.52
2019-01-31T05:42:42.736Z,994.56
2019-01-31T05:43:23.430Z,994.6
2019-01-31T05:44:04.176Z,994.56
2019-01-31T05:44:44.912Z,994.59
2019-01-31T05:45:25.483Z,994.6
2019-01-31T05:46:06.036Z,994.6
2019-01-31T05:46:46.597Z,994.58
2019-01-31T05:47:27.182Z,994.62
2019-01-31T05:48:07.812Z,994.57
2019-01-31T05:48:48.610Z,994.54
2019-01-31T05:49:29.427Z,994.58
2019-01-31T05:50:09.990Z,994.6
2019-01-31T05:50:50.541Z,994.6
2019-01-31T05:51:31.094Z,994.59
2019-01-31T05:52:11.649Z,994.6
2019-01-31T05:52:52.348Z,994.63
2019-01-31T05:53:32.919Z,994.69
2019-01-31T05:54:13.468Z,994.67
2019-01-31T05:54:54.027Z,994.68
2019-01-31T05:55:34.596Z,994.69
2019-01-31T05:56:15.362Z,994.69
2019-01-31T05:56:56.142Z,994.71
2019-01-31T05:57:36.854Z,994.68
2019-01-31T05:58:17.604Z,994.66
2019-01-31T05:58:58.170Z,994.7
2019-01-31T05:59:38.740Z,994.69
2019-01-31T06:00:19.310Z,994.72
2019-01-31T06:00:59.989Z,994.68
2019-01-31T06:01:40.470Z,994.73
2019-01-31T06:02:21.059Z,994.73
2019-01-31T06:03:01.641Z,994.72
2019-01-31T06:03:42.203Z,994.7
2019-01-31T06:04:22.753Z,994.7
2019-01-31T06:05:03.306Z,994.73
2019-01-31T06:05:43.860Z,994.73
2019-01-31T06:06:24.413Z,994.73
2019-01-31T06:07:11.071Z,994.74
2019-01-31T06:07:45.528Z,994.75
2019-01-31T06:08:26.116Z,994.75
2019-01-31T06:09:06.681Z,994.76
2019-01-31T06:09:47.244Z,994.73
2019-01-31T06:10:27.828Z,994.74
2019-01-31T06:11:08.384Z,994.77
2019-01-31T06:11:48.953Z,994.75
2019-01-31T06:12:29.505Z,994.76
2019-01-31T06:13:10.072Z,994.73
2019-01-31T06:13:50.627Z,994.74
2019-01-31T06:14:31.202Z,994.74
2019-01-31T06:15:11.755Z,994.73
2019-01-31T06:15:52.310Z,994.72
2019-01-31T06:16:32.885Z,994.74
2019-01-31T06:17:13.444Z,994.74
2019-01-31T06:17:54.009Z,994.74
2019-01-31T06:18:34.563Z,994.72
2019-01-31T06:19:15.114Z,994.76
2019-01-31T06:19:55.669Z,994.78
2019-01-31T06:20:36.265Z,994.77
2019-01-31T06:21:16.815Z,994.76
2019-01-31T06:21:57.366Z,994.75
2019-01-31T06:22:37.948Z,994.76
2019-01-31T06:23:18.576Z,994.76
2019-01-31T06:23:59.116Z,994.75
2019-01-31T06:24:39.759Z,994.77
2019-01-31T06:25:20.493Z,994.81
2019-01-31T06:26:01.191Z,994.76
2019-01-31T06:26:41.959Z,994.8
2019-01-31T06:27:22.535Z,994.82
2019-01-31T06:28:03.298Z,994.83
2019-01-31T06:28:43.976Z,994.82
2019-01-31T06:29:24.539Z,994.81
2019-01-31T06:30:05.100Z,994.9
2019-01-31T06:30:45.651Z,994.86
2019-01-31T06:31:26.272Z,994.86
2019-01-31T06:32:06.861Z,994.88
2019-01-31T06:32:47.493Z,994.89
2019-01-31T06:33:28.562Z,994.92
2019-01-31T06:34:08.613Z,994.93
2019-01-31T06:34:49.186Z,994.91
2019-01-31T06:35:29.769Z,994.89
2019-01-31T06:36:10.332Z,994.89
2019-01-31T06:36:50.911Z,994.87
2019-01-31T06:37:31.504Z,994.95
2019-01-31T06:38:12.088Z,994.93
2019-01-31T06:38:52.661Z,994.98
2019-01-31T06:39:33.219Z,994.9
2019-01-31T06:40:13.775Z,994.92
2019-01-31T06:40:54.323Z,994.94
2019-01-31T06:41:34.908Z,994.94
2019-01-31T06:42:15.456Z,994.96
2019-01-31T06:42:56.026Z,994.92
2019-01-31T06:43:36.594Z,994.95
2019-01-31T06:44:17.198Z,994.93
2019-01-31T06:44:57.749Z,994.94
2019-01-31T06:45:38.315Z,994.93
2019-01-31T06:46:18.867Z,994.95
2019-01-31T06:46:59.442Z,994.95
2019-01-31T06:47:40.269Z,994.97
2019-01-31T06:48:20.987Z,995.01
2019-01-31T06:49:01.551Z,994.98
2019-01-31T06:49:42.101Z,994.98
2019-01-31T06:50:22.676Z,995
2019-01-31T06:51:03.234Z,995.03
2019-01-31T06:51:43.785Z,995.02
2019-01-31T06:52:24.363Z,994.97
2019-01-31T06:53:04.917Z,995.01
2019-01-31T06:53:45.473Z,995.04
2019-01-31T06:54:26.929Z,995
2019-01-31T06:55:06.630Z,995.05
2019-01-31T06:55:47.220Z,995.02
2019-01-31T06:56:27.782Z,995.01
2019-01-31T06:57:08.352Z,995.03
2019-01-31T06:57:48.972Z,995.03
2019-01-31T06:58:29.567Z,995.02
2019-01-31T06:59:10.142Z,995.02
2019-01-31T06:59:50.694Z,995.05
2019-01-31T07:00:31.288Z,995.07
2019-01-31T07:01:11.835Z,995.04
2019-01-31T07:01:52.416Z,995.11
2019-01-31T07:02:32.982Z,995.06
2019-01-31T07:03:15.533Z,995.07
2019-01-31T07:06:09.204Z,995.15
2019-01-31T07:06:49.765Z,995.14
2019-01-31T07:07:30.323Z,995.17
2019-01-31T07:08:10.888Z,995.11
2019-01-31T07:08:51.441Z,995.12
2019-01-31T07:09:31.997Z,995.13
2019-01-31T07:10:12.547Z,995.15
2019-01-31T07:10:53.126Z,995.14
2019-01-31T07:11:34.872Z,995.16
2019-01-31T07:12:14.223Z,995.18
2019-01-31T07:12:54.779Z,995.16
2019-01-31T07:13:35.327Z,995.19
2019-01-31T07:14:15.896Z,995.16
2019-01-31T07:14:56.602Z,995.16
2019-01-31T07:15:37.244Z,995.17
2019-01-31T07:16:17.819Z,995.19
2019-01-31T10:41:13.273Z,995.66
2019-01-31T10:41:53.848Z,995.65
2019-01-31T10:42:34.484Z,995.67
2019-01-31T10:43:15.035Z,995.67
2019-01-31T10:43:55.597Z,995.65
2019-01-31T10:44:36.163Z,995.67
2019-01-31T10:45:16.720Z,995.63
2019-01-31T10:45:57.288Z,995.64
2019-01-31T10:46:37.847Z,995.63
2019-01-31T10:47:18.436Z,995.62
2019-01-31T10:47:59.059Z,995.64
2019-01-31T10:48:39.639Z,995.65
2019-01-31T10:49:20.222Z,995.65
2019-01-31T10:50:01.106Z,995.65
2019-01-31T10:50:41.663Z,995.69
2019-01-31T10:51:22.222Z,995.65
2019-01-31T10:52:02.781Z,995.7
2019-01-31T10:52:43.320Z,995.67
2019-01-31T10:53:23.912Z,995.71
2019-01-31T10:54:04.528Z,995.68
2019-01-31T10:54:45.089Z,995.7
2019-01-31T10:55:27.168Z,995.73
2019-01-31T10:56:07.746Z,995.73
2019-01-31T10:56:48.297Z,995.71
2019-01-31T10:57:28.852Z,995.72
2019-01-31T10:58:09.415Z,995.69
2019-01-31T10:58:49.970Z,995.7
2019-01-31T10:59:30.533Z,995.69
2019-01-31T11:00:11.117Z,995.67
2019-01-31T11:00:51.673Z,995.71
2019-01-31T11:01:32.219Z,995.7
2019-01-31T11:02:12.786Z,995.68
2019-01-31T11:02:53.343Z,995.69
2019-01-31T11:03:33.915Z,995.64
2019-01-31T11:04:14.522Z,995.63
2019-01-31T11:04:55.105Z,995.62
2019-01-31T11:05:35.661Z,995.64
2019-01-31T11:06:16.227Z,995.59
2019-01-31T11:06:56.799Z,995.61
2019-01-31T11:07:37.412Z,995.64
2019-01-31T11:08:17.970Z,995.6
2019-01-31T11:08:58.535Z,995.6
2019-01-31T11:09:39.093Z,995.59
2019-01-31T11:10:19.669Z,995.6
2019-01-31T11:11:00.226Z,995.61
2019-01-31T11:11:40.783Z,995.58
2019-01-31T11:12:21.337Z,995.59
2019-01-31T11:13:01.903Z,995.61
2019-01-31T11:13:42.458Z,995.6
2019-01-31T11:14:23.060Z,995.57
2019-01-31T11:15:03.633Z,995.6
2019-01-31T11:15:44.211Z,995.6
2019-01-31T11:16:24.761Z,995.62
2019-01-31T11:17:05.314Z,995.59
2019-01-31T11:17:45.890Z,995.57
2019-01-31T11:18:26.447Z,995.61
2019-01-31T11:19:12.236Z,995.59
2019-01-31T11:19:47.559Z,995.58
2019-01-31T11:20:28.150Z,995.57
2019-01-31T11:21:08.699Z,995.62
2019-01-31T11:21:49.255Z,995.57
2019-01-31T11:22:29.844Z,995.58
2019-01-31T11:23:10.460Z,995.57
2019-01-31T11:23:51.042Z,995.57
2019-01-31T11:24:31.659Z,995.6
2019-01-31T11:25:12.213Z,995.52
2019-01-31T11:25:52.781Z,995.58
2019-01-31T11:26:33.349Z,995.57
2019-01-31T11:27:13.905Z,995.57
2019-01-31T11:27:54.457Z,995.61
2019-01-31T11:28:35.084Z,995.55
2019-01-31T11:29:15.635Z,995.59
2019-01-31T11:29:56.234Z,995.62
2019-01-31T11:30:36.791Z,995.66
2019-01-31T11:31:17.347Z,995.62
2019-01-31T11:31:57.934Z,995.63
2019-01-31T11:32:38.725Z,995.6
2019-01-31T11:33:19.055Z,995.58
2019-01-31T11:33:59.656Z,995.6
2019-01-31T11:34:40.212Z,995.6
2019-01-31T11:35:20.774Z,995.6
2019-01-31T11:36:01.338Z,995.57
2019-01-31T11:36:41.904Z,995.6
2019-01-31T11:37:22.470Z,995.53
2019-01-31T11:38:03.038Z,995.54
2019-01-31T11:38:43.590Z,995.55
2019-01-31T11:39:24.165Z,995.54
2019-01-31T11:40:04.724Z,995.59
2019-01-31T11:40:45.292Z,995.55
2019-01-31T11:41:25.858Z,995.52
2019-01-31T11:42:06.439Z,995.53
2019-01-31T11:42:46.995Z,995.52
2019-01-31T11:43:27.563Z,995.54
2019-01-31T11:44:08.127Z,995.63
2019-01-31T11:44:48.686Z,995.55
2019-01-31T11:45:29.257Z,995.59
2019-01-31T11:46:09.812Z,995.54
2019-01-31T11:46:50.365Z,995.53
2019-01-31T11:47:30.984Z,995.57
2019-01-31T11:48:11.537Z,995.52
2019-01-31T11:48:52.091Z,995.53
2019-01-31T11:49:33.143Z,995.54
2019-01-31T11:50:13.701Z,995.53
2019-01-31T11:50:54.257Z,995.5
2019-01-31T11:51:34.820Z,995.5
2019-01-31T11:52:15.384Z,995.47
2019-01-31T11:52:56.025Z,995.48
2019-01-31T11:53:36.560Z,995.48
2019-01-31T11:54:17.176Z,995.47
2019-01-31T11:54:57.763Z,995.43
2019-01-31T11:55:38.332Z,995.45